createdAt,value
2019-04-29T00:03:09.740Z,87.59
2019-04-29T00:08:14.759Z,87.87
2019-04-29T00:13:21.016Z,88.77
2019-04-29T00:18:39.185Z,89.03
2019-04-29T00:23:46.285Z,89.32
2019-04-29T00:28:51.669Z,89.32
2019-04-29T00:33:55.336Z,89.87
2019-04-29T00:39:17.319Z,89.69
2019-04-29T00:44:21.611Z,89.16
2019-04-29T00:49:26.124Z,88.89
2019-04-29T00:54:36.639Z,88.90
2019-04-29T00:59:42.955Z,87.57
2019-04-29T01:04:46.415Z,87.87
2019-04-29T01:09:50.987Z,88.10
2019-04-29T01:14:54.883Z,87.36
2019-04-29T01:19:58.196Z,87.95
2019-04-29T01:25:03.274Z,88.75
2019-04-29T01:30:08.352Z,88.62
2019-04-29T01:35:12.233Z,88.81
2019-04-29T01:40:39.231Z,88.74
2019-04-29T01:45:42.368Z,88.86
2019-04-29T01:50:46.674Z,88.65
2019-04-29T01:55:49.876Z,88.99
2019-04-29T02:00:53.369Z,89.73
2019-04-29T02:05:56.252Z,90.33
2019-04-29T02:10:59.092Z,89.84
2019-04-29T02:16:01.992Z,89.88
2019-04-29T02:21:04.934Z,90.57
2019-04-29T02:26:08.379Z,90.80
2019-04-29T02:31:29.133Z,90.76
2019-04-29T02:36:32.292Z,90.32
2019-04-29T02:41:43.848Z,89.61
2019-04-29T02:46:47.479Z,88.91
2019-04-29T02:51:52.831Z,89.38
2019-04-29T02:57:10.375Z,89.91
2019-04-29T03:02:32.831Z,90.96
2019-04-29T03:07:35.753Z,91.19
2019-04-29T03:12:39.509Z,91.75
2019-04-29T03:17:43.022Z,91.96
2019-04-29T03:22:46.343Z,91.62
2019-04-29T03:27:49.882Z,91.40
2019-04-29T03:32:52.838Z,91.54
2019-04-29T03:37:56.304Z,91.46
2019-04-29T03:42:59.190Z,91.94
2019-04-29T03:48:02.428Z,92.58
2019-04-29T03:53:04.584Z,92.18
2019-04-29T03:58:08.176Z,92.33
2019-04-29T04:03:36.755Z,92.14
2019-04-29T04:09:04.333Z,92.38
2019-04-29T04:13:52.463Z,92.06
2019-04-29T04:19:05.525Z,92.39
2019-04-29T04:24:08.682Z,92.58
2019-04-29T04:29:12.048Z,92.34
2019-04-29T04:34:15.005Z,93.02
2019-04-29T04:39:18.171Z,92.77
2019-04-29T04:44:23.423Z,92.09
2019-04-29T04:49:26.216Z,92.29
2019-04-29T04:54:31.436Z,92.45
2019-04-29T04:59:34.579Z,92.87
2019-04-29T05:04:37.263Z,93.17
2019-04-29T05:09:40.400Z,93.05
2019-04-29T05:14:43.289Z,92.45
2019-04-29T05:19:46.817Z,92.47
2019-04-29T05:24:50.050Z,92.47
2019-04-29T05:29:52.928Z,93.21
2019-04-29T05:34:57.769Z,92.84
2019-04-29T05:40:00.568Z,92.87
2019-04-29T05:45:10.853Z,92.59
2019-04-29T05:50:30.522Z,93.58
2019-04-29T05:55:32.681Z,93.39
2019-04-29T06:00:36.039Z,93.10
2019-04-29T06:05:38.875Z,93.33
2019-04-29T06:10:42.324Z,93.26
2019-04-29T06:15:45.240Z,93.17
2019-04-29T06:20:48.437Z,93.38
2019-04-29T06:25:51.675Z,93.92
2019-04-29T06:30:56.452Z,93.52
2019-04-29T06:36:02.109Z,93.02
2019-04-29T06:41:05.532Z,92.94
2019-04-29T06:46:09.821Z,93.06
2019-04-29T06:51:12.797Z,93.46
2019-04-29T06:56:15.953Z,93.31
2019-04-29T07:01:19.445Z,92.97
2019-04-29T07:06:22.673Z,93.08
2019-04-29T07:11:26.953Z,92.83
2019-04-29T07:16:32.085Z,93.26
2019-04-29T07:21:35.647Z,93.27
2019-04-29T07:26:39.179Z,93.07
2019-04-29T07:31:42.691Z,93.67
2019-04-29T07:36:46.236Z,92.03
2019-04-29T07:41:49.573Z,92.00
2019-04-29T07:46:57.882Z,91.95
2019-04-29T07:52:00.364Z,92.40
2019-04-29T07:57:03.591Z,92.03
2019-04-29T08:02:06.580Z,92.03
2019-04-29T08:07:09.994Z,92.31
2019-04-29T08:12:13.088Z,91.60
2019-04-29T08:17:16.601Z,90.52
2019-04-29T08:22:22.910Z,90.07
2019-04-29T08:27:39.088Z,89.10
2019-04-29T08:32:31.688Z,87.25
2019-04-29T08:37:35.348Z,85.90
2019-04-29T08:42:46.471Z,84.67
2019-04-29T08:47:47.345Z,84.46
2019-04-29T08:52:50.247Z,85.09
2019-04-29T08:57:53.399Z,85.20
2019-04-29T09:02:56.266Z,84.34
2019-04-29T09:08:00.267Z,83.69
2019-04-29T09:13:03.104Z,85.63
2019-04-29T09:18:06.503Z,87.50
2019-04-29T09:23:12.423Z,89.66
2019-04-29T09:28:18.413Z,89.94
2019-04-29T09:33:21.067Z,89.86
2019-04-29T09:38:24.258Z,89.18
2019-04-29T09:43:49.762Z,88.29
2019-04-29T09:48:53.008Z,86.82
2019-04-29T09:53:56.223Z,86.72
2019-04-29T09:59:17.545Z,84.32
2019-04-29T10:04:30.141Z,83.51
2019-04-29T10:09:33.773Z,81.96
2019-04-29T10:14:36.752Z,82.35
2019-04-29T10:19:54.453Z,82.66
2019-04-29T10:24:57.664Z,77.95
2019-04-29T10:30:00.571Z,79.88
2019-04-29T10:35:08.671Z,77.28
2019-04-29T10:40:37.475Z,75.23
2019-04-29T10:46:15.326Z,76.32
2019-04-29T10:51:18.004Z,72.39
2019-04-29T10:56:21.434Z,70.52
2019-04-29T11:02:14.067Z,69.59
2019-04-29T11:07:35.590Z,70.19
2019-04-29T11:12:38.850Z,70.71
2019-04-29T11:17:44.685Z,69.88
2019-04-29T11:22:53.283Z,69.81
2019-04-29T11:27:57.392Z,70.92
2019-04-29T11:33:19.878Z,71.96
2019-04-29T11:38:23.419Z,69.21
2019-04-29T11:43:28.340Z,69.66
2019-04-29T11:48:31.912Z,68.91
2019-04-29T11:53:36.984Z,65.62
2019-04-29T11:58:46.355Z,63.36
2019-04-29T12:03:51.554Z,60.81
2019-04-29T12:08:55.159Z,61.61
2019-04-29T12:14:13.683Z,57.62
2019-04-29T12:19:23.036Z,56.60
2019-04-29T12:24:26.241Z,56.06
2019-04-29T12:29:29.439Z,54.68
2019-04-29T12:35:01.248Z,48.69
2019-04-29T12:40:33.584Z,46.50
2019-04-29T12:45:41.762Z,46.97
2019-04-29T12:50:45.481Z,46.51
2019-04-29T12:55:53.461Z,48.05
2019-04-29T13:01:01.156Z,45.24
2019-04-29T13:06:15.591Z,47.12
2019-04-29T13:11:20.960Z,44.88
2019-04-29T13:17:13.941Z,44.61
2019-04-29T13:22:10.586Z,44.22
2019-04-29T13:27:16.420Z,42.66
2019-04-29T13:32:17.456Z,41.89
2019-04-29T13:37:22.200Z,42.84
2019-04-29T13:42:25.661Z,41.56
2019-04-29T13:47:44.516Z,41.51
2019-04-29T13:52:47.890Z,39.64
2019-04-29T13:57:54.876Z,41.05
2019-04-29T14:03:00.329Z,39.41
2019-04-29T14:08:04.043Z,39.92
2019-04-29T14:13:15.147Z,38.71
2019-04-29T14:18:13.611Z,40.06
2019-04-29T14:23:17.127Z,38.93
2019-04-29T14:28:20.370Z,38.84
2019-04-29T14:33:27.699Z,39.83
2019-04-29T14:38:30.577Z,39.22
2019-04-29T14:43:54.905Z,40.89
2019-04-29T14:49:14.497Z,38.34
2019-04-29T14:54:17.028Z,39.73
2019-04-29T14:59:20.688Z,38.78
2019-04-29T15:04:26.287Z,39.70
2019-04-29T15:09:29.270Z,38.40
2019-04-29T15:14:49.162Z,39.09
2019-04-29T15:20:07.352Z,39.88
2019-04-29T15:25:10.840Z,40.33
2019-04-29T15:30:13.643Z,38.78
2019-04-29T15:35:19.829Z,39.48
2019-04-29T15:40:26.321Z,38.75
2019-04-29T15:45:28.055Z,41.71
2019-04-29T15:50:32.750Z,40.74
2019-04-29T15:55:39.467Z,40.92
2019-04-29T16:00:41.940Z,43.66
2019-04-29T16:06:21.180Z,42.26
2019-04-29T16:11:34.781Z,43.22
2019-04-29T16:16:38.023Z,42.76
2019-04-29T16:21:41.770Z,42.25
2019-04-29T16:26:45.054Z,42.66
2019-04-29T16:31:48.195Z,42.48
2019-04-29T16:36:52.577Z,44.22
2019-04-29T16:42:04.810Z,44.61
2019-04-29T16:47:13.234Z,44.06
2019-04-29T16:52:15.556Z,45.44
2019-04-29T16:57:18.857Z,45.30
2019-04-29T17:02:22.930Z,45.36
2019-04-29T17:07:26.277Z,44.84
2019-04-29T17:17:40.745Z,47.12
2019-04-29T17:22:44.804Z,47.65
2019-04-29T17:28:11.926Z,49.00
2019-04-29T17:33:26.321Z,50.36
2019-04-29T17:35:17.752Z,45.88
2019-04-29T17:38:22.226Z,51.67
2019-04-29T17:43:44.764Z,52.38
2019-04-29T17:48:54.072Z,53.75
2019-04-29T17:54:00.030Z,54.59
2019-04-29T17:59:18.191Z,55.55
2019-04-29T18:04:36.075Z,54.65
2019-04-29T18:09:50.270Z,55.33
2019-04-29T18:14:55.065Z,52.47
2019-04-29T18:20:30.701Z,51.65
2019-04-29T18:25:48.777Z,54.05
2019-04-29T18:30:56.048Z,52.93
2019-04-29T18:36:04.145Z,51.82
2019-04-29T18:41:01.839Z,51.81
2019-04-29T18:46:12.270Z,50.21
2019-04-29T18:51:10.931Z,49.05
2019-04-29T18:56:14.883Z,50.99
2019-04-29T19:01:19.750Z,53.07
2019-04-29T19:06:23.946Z,52.40
2019-04-29T19:11:32.469Z,51.91
2019-04-29T19:16:33.630Z,52.51
2019-04-29T19:21:36.991Z,52.87
2019-04-29T19:26:40.542Z,50.91
2019-04-29T19:31:48.640Z,50.45
2019-04-29T19:36:50.719Z,50.22
2019-04-29T19:41:55.709Z,49.87
2019-04-29T19:46:59.295Z,51.29
2019-04-29T19:52:02.532Z,51.22
2019-04-29T19:57:07.500Z,50.98
2019-04-29T20:02:11.750Z,50.48
2019-04-29T20:07:17.328Z,49.41
2019-04-29T20:12:21.004Z,48.48
2019-04-29T20:17:45.727Z,51.12
2019-04-29T20:22:51.173Z,53.37
2019-04-29T20:28:05.102Z,53.24
2019-04-29T20:33:01.167Z,55.00
2019-04-29T20:38:05.528Z,56.72
2019-04-29T20:43:08.772Z,57.04
2019-04-29T20:48:17.871Z,57.08
2019-04-29T20:53:30.860Z,58.77
2019-04-29T20:58:35.991Z,61.80
2019-04-29T21:03:40.911Z,61.16
2019-04-29T21:08:51.152Z,60.85
2019-04-29T21:14:00.818Z,61.54
2019-04-29T21:19:08.516Z,62.20
2019-04-29T21:24:14.777Z,58.56
2019-04-29T21:29:19.420Z,62.23
2019-04-29T21:34:25.523Z,59.31
2019-04-29T21:39:38.941Z,62.10
2019-04-29T21:44:42.489Z,61.19
2019-04-29T21:49:49.732Z,62.99
2019-04-29T21:54:50.972Z,61.83
2019-04-29T21:59:55.546Z,64.75
2019-04-29T22:04:59.047Z,63.21
2019-04-29T22:10:02.543Z,63.42
2019-04-29T22:15:05.995Z,64.11
2019-04-29T22:20:10.493Z,64.33
2019-04-29T22:25:15.604Z,65.76
2019-04-29T22:30:19.867Z,65.53
2019-04-29T22:35:25.186Z,65.94
2019-04-29T22:40:28.365Z,67.89
2019-04-29T22:45:34.230Z,66.21
2019-04-29T22:50:38.066Z,68.62
2019-04-29T22:55:42.225Z,67.70
2019-04-29T23:00:45.810Z,68.20
2019-04-29T23:05:48.698Z,68.00
2019-04-29T23:10:52.226Z,68.46
2019-04-29T23:16:00.998Z,68.76
2019-04-29T23:21:16.532Z,69.08
2019-04-29T23:26:20.372Z,69.37
2019-04-29T23:31:27.197Z,69.78
2019-04-29T23:36:29.143Z,68.60
2019-04-29T23:41:32.923Z,68.08
2019-04-29T23:46:36.591Z,68.70
2019-04-29T23:51:39.450Z,67.97
2019-04-29T23:57:11.269Z,69.07
